createdAt,value
2017-11-12T00:00:28.764Z,0
2017-11-12T00:01:37.389Z,0
2017-11-12T00:02:46.013Z,0
2017-11-12T00:03:54.627Z,0
2017-11-12T00:05:03.250Z,0
2017-11-12T00:06:11.874Z,0
2017-11-12T00:07:20.485Z,0
2017-11-12T00:08:29.109Z,0
2017-11-12T00:09:37.732Z,0
2017-11-12T00:10:46.348Z,0
2017-11-12T00:11:54.966Z,0
2017-11-12T00:13:03.593Z,0
2017-11-12T00:14:12.212Z,0
2017-11-12T00:15:20.843Z,0
2017-11-12T00:16:29.449Z,0
2017-11-12T00:17:38.070Z,0
2017-11-12T00:18:46.694Z,0
2017-11-12T00:19:55.313Z,0
2017-11-12T00:21:03.931Z,0
2017-11-12T00:22:12.905Z,0
2017-11-12T00:23:21.519Z,0
2017-11-12T00:24:30.136Z,0
2017-11-12T00:25:38.763Z,0
2017-11-12T00:26:47.384Z,0
2017-11-12T00:27:56.019Z,0
2017-11-12T00:29:04.624Z,0
2017-11-12T00:30:13.236Z,0
2017-11-12T00:31:21.861Z,0
2017-11-12T00:32:30.476Z,0
2017-11-12T00:33:39.095Z,0
2017-11-12T00:34:47.723Z,0
2017-11-12T00:35:56.341Z,0
2017-11-12T00:37:04.957Z,0
2017-11-12T00:38:13.580Z,0
2017-11-12T00:39:22.203Z,0
2017-11-12T00:40:30.817Z,0
2017-11-12T00:41:39.440Z,0
2017-11-12T00:42:48.061Z,0
2017-11-12T00:43:56.675Z,0
2017-11-12T00:45:05.301Z,0
2017-11-12T00:46:13.924Z,0
2017-11-12T00:47:22.548Z,0
2017-11-12T00:48:31.172Z,0
2017-11-12T00:49:39.786Z,0
2017-11-12T00:50:48.405Z,0
2017-11-12T00:51:57.026Z,0
2017-11-12T00:53:05.653Z,0
2017-11-12T00:54:14.273Z,0
2017-11-12T00:55:22.889Z,0
2017-11-12T00:56:31.514Z,0
2017-11-12T00:57:40.135Z,0
2017-11-12T00:58:48.743Z,0
2017-11-12T00:59:57.702Z,0
2017-11-12T01:01:06.316Z,0
2017-11-12T01:02:14.943Z,0
2017-11-12T01:03:23.566Z,0
2017-11-12T01:04:32.180Z,0
2017-11-12T01:05:40.805Z,0
2017-11-12T01:06:49.425Z,0
2017-11-12T01:07:58.038Z,0
2017-11-12T01:09:06.660Z,0
2017-11-12T01:10:15.284Z,0
2017-11-12T01:11:24.236Z,0
2017-11-12T01:12:33.185Z,0
2017-11-12T01:13:41.808Z,0
2017-11-12T01:14:50.428Z,0
2017-11-12T01:15:59.051Z,0
2017-11-12T01:17:07.667Z,0
2017-11-12T01:18:16.291Z,0
2017-11-12T01:19:24.912Z,0
2017-11-12T01:20:33.524Z,0
2017-11-12T01:21:42.149Z,0
2017-11-12T01:22:50.769Z,0
2017-11-12T01:23:59.391Z,0
2017-11-12T01:25:08.010Z,0
2017-11-12T01:26:16.636Z,0
2017-11-12T01:27:25.254Z,0
2017-11-12T01:28:33.874Z,0
2017-11-12T01:29:42.485Z,0
2017-11-12T01:30:51.108Z,0
2017-11-12T01:31:59.732Z,0
2017-11-12T01:33:08.351Z,0
2017-11-12T01:34:16.964Z,0
2017-11-12T01:35:25.592Z,0
2017-11-12T01:36:34.214Z,0
2017-11-12T01:37:42.828Z,0
2017-11-12T01:38:51.453Z,0
2017-11-12T01:40:00.077Z,0
2017-11-12T01:41:09.025Z,0
2017-11-12T01:42:17.647Z,0
2017-11-12T01:43:26.594Z,0
2017-11-12T01:44:35.219Z,0
2017-11-12T01:45:43.832Z,0
2017-11-12T01:46:52.451Z,0
2017-11-12T01:48:01.074Z,0
2017-11-12T01:49:09.691Z,0
2017-11-12T01:50:18.307Z,0
2017-11-12T01:51:26.924Z,0
2017-11-12T01:52:36.212Z,0
2017-11-12T01:53:44.839Z,0
2017-11-12T01:54:53.458Z,0
2017-11-12T01:56:02.078Z,0
2017-11-12T01:57:10.703Z,0
2017-11-12T01:58:19.313Z,0
2017-11-12T01:59:27.933Z,0
2017-11-12T02:00:36.554Z,0
2017-11-12T02:01:45.171Z,0
2017-11-12T02:02:53.803Z,0
2017-11-12T02:04:02.418Z,0
2017-11-12T02:05:11.038Z,0
2017-11-12T02:06:19.663Z,0
2017-11-12T02:07:28.279Z,0
2017-11-12T02:08:36.895Z,0
2017-11-12T02:09:45.518Z,0
2017-11-12T02:10:54.143Z,0
2017-11-12T02:12:02.756Z,0
2017-11-12T02:13:11.378Z,0
2017-11-12T02:14:19.994Z,0
2017-11-12T02:15:28.620Z,0
2017-11-12T02:16:37.240Z,0
2017-11-12T02:17:45.857Z,0
2017-11-12T02:18:54.483Z,0
2017-11-12T02:20:03.095Z,0
2017-11-12T02:21:11.721Z,0
2017-11-12T02:22:20.339Z,0
2017-11-12T02:23:28.961Z,0
2017-11-12T02:24:38.248Z,0
2017-11-12T02:25:46.868Z,0
2017-11-12T02:26:55.488Z,0
2017-11-12T02:28:04.106Z,0
2017-11-12T02:29:12.721Z,0
2017-11-12T02:30:21.350Z,0
2017-11-12T02:31:29.965Z,0
2017-11-12T02:32:38.585Z,0
2017-11-12T02:33:47.222Z,0
2017-11-12T02:34:55.832Z,0
2017-11-12T02:36:04.449Z,0
2017-11-12T02:37:13.070Z,0
2017-11-12T02:38:21.690Z,0
2017-11-12T02:39:30.309Z,0
2017-11-12T02:40:39.263Z,0
2017-11-12T02:41:48.210Z,0
2017-11-12T02:42:56.831Z,0
2017-11-12T02:44:05.451Z,0
2017-11-12T02:45:14.068Z,0
2017-11-12T02:46:22.692Z,0
2017-11-12T02:47:31.314Z,0
2017-11-12T02:48:39.928Z,0
2017-11-12T02:49:48.556Z,0
2017-11-12T02:50:57.166Z,0
2017-11-12T02:52:06.140Z,0
2017-11-12T02:53:14.754Z,0
2017-11-12T02:54:23.373Z,0
2017-11-12T02:55:32.352Z,0
2017-11-12T02:56:40.955Z,0
2017-11-12T02:57:49.577Z,0
2017-11-12T02:58:58.193Z,0
2017-11-12T03:00:06.825Z,0
2017-11-12T03:01:15.774Z,0
2017-11-12T03:02:24.396Z,0
2017-11-12T03:03:33.014Z,0
2017-11-12T03:04:41.634Z,0
2017-11-12T03:05:50.258Z,0
2017-11-12T03:06:58.872Z,0
2017-11-12T03:08:07.497Z,0
2017-11-12T03:09:16.118Z,0
2017-11-12T03:10:24.730Z,0
2017-11-12T03:11:33.353Z,0
2017-11-12T03:12:41.980Z,0
2017-11-12T03:13:50.611Z,0
2017-11-12T03:14:59.235Z,0
2017-11-12T03:16:07.849Z,0
2017-11-12T03:17:16.804Z,0
2017-11-12T03:18:25.429Z,0
2017-11-12T03:19:34.370Z,0
2017-11-12T03:20:43.002Z,0
2017-11-12T03:21:51.616Z,0
2017-11-12T03:23:00.232Z,0
2017-11-12T03:24:08.850Z,0
2017-11-12T03:25:17.478Z,0
2017-11-12T03:26:26.093Z,0
2017-11-12T03:27:34.717Z,0
2017-11-12T03:28:43.331Z,0
2017-11-12T03:29:51.955Z,0
2017-11-12T03:31:00.579Z,0
2017-11-12T03:32:09.196Z,0
2017-11-12T03:33:17.815Z,0
2017-11-12T03:34:26.442Z,0
2017-11-12T03:35:35.057Z,0
2017-11-12T03:36:43.676Z,0
2017-11-12T03:37:52.300Z,0
2017-11-12T03:39:00.921Z,0
2017-11-12T03:40:09.536Z,0
2017-11-12T03:41:18.160Z,0
2017-11-12T03:42:26.776Z,0
2017-11-12T03:43:35.737Z,0
2017-11-12T03:44:44.349Z,0
2017-11-12T03:45:52.966Z,0
2017-11-12T03:47:01.593Z,0
2017-11-12T03:48:10.202Z,0
2017-11-12T03:49:18.823Z,0
2017-11-12T03:50:27.446Z,0
2017-11-12T03:51:36.055Z,0
2017-11-12T03:52:44.682Z,0
2017-11-12T03:53:53.310Z,0
2017-11-12T03:55:01.922Z,0
2017-11-12T03:56:10.540Z,0
2017-11-12T03:57:19.168Z,0
2017-11-12T03:58:27.794Z,0
2017-11-12T03:59:36.748Z,0
2017-11-12T04:00:45.359Z,0
2017-11-12T04:01:53.991Z,0
2017-11-12T04:03:02.604Z,0
2017-11-12T04:04:11.219Z,0
2017-11-12T04:05:19.842Z,0
2017-11-12T04:06:28.462Z,0
2017-11-12T04:07:37.079Z,0
2017-11-12T04:08:45.703Z,0
2017-11-12T04:09:54.319Z,0
2017-11-12T04:11:02.947Z,0
2017-11-12T04:12:11.569Z,0
2017-11-12T04:13:20.177Z,0
2017-11-12T04:14:28.803Z,0
2017-11-12T04:15:37.418Z,0
2017-11-12T04:16:46.034Z,0
2017-11-12T04:17:54.657Z,0
2017-11-12T04:19:03.284Z,0
2017-11-12T04:20:11.892Z,0
2017-11-12T04:21:20.518Z,0
2017-11-12T04:22:29.142Z,0
2017-11-12T04:23:37.758Z,0
2017-11-12T04:24:46.381Z,0
2017-11-12T04:25:54.997Z,0
2017-11-12T04:27:03.622Z,0
2017-11-12T04:28:12.250Z,0
2017-11-12T04:29:20.864Z,0
2017-11-12T04:30:29.489Z,0
2017-11-12T04:31:38.108Z,0
2017-11-12T04:32:46.720Z,0
2017-11-12T04:33:55.341Z,0
2017-11-12T04:35:03.963Z,0
2017-11-12T04:36:12.917Z,0
2017-11-12T04:37:21.869Z,0
2017-11-12T04:38:30.493Z,0
2017-11-12T04:39:39.110Z,0
2017-11-12T04:40:47.735Z,0
2017-11-12T04:41:56.347Z,0
2017-11-12T04:43:04.969Z,0
2017-11-12T04:44:13.610Z,0
2017-11-12T04:45:22.202Z,0
2017-11-12T04:46:30.835Z,0
2017-11-12T04:47:39.450Z,0
2017-11-12T04:48:48.068Z,0
2017-11-12T04:49:56.693Z,0
2017-11-12T04:51:05.307Z,0
2017-11-12T04:52:13.930Z,0
2017-11-12T04:53:22.549Z,0
2017-11-12T04:54:31.172Z,0
2017-11-12T04:55:39.804Z,0
2017-11-12T04:56:48.409Z,0
2017-11-12T04:57:57.030Z,0
2017-11-12T04:59:05.656Z,0
2017-11-12T05:00:14.269Z,0
2017-11-12T05:01:22.894Z,0
2017-11-12T05:02:31.855Z,0
2017-11-12T05:03:40.476Z,0
2017-11-12T05:04:49.092Z,0
2017-11-12T05:05:57.720Z,0
2017-11-12T05:07:06.332Z,0
2017-11-12T05:08:14.955Z,0
2017-11-12T05:09:23.570Z,0
2017-11-12T05:10:32.196Z,0
2017-11-12T05:11:40.806Z,0
2017-11-12T05:12:49.424Z,0
2017-11-12T05:13:58.038Z,0
2017-11-12T05:15:06.665Z,0
2017-11-12T05:16:15.284Z,0
2017-11-12T05:17:23.902Z,0
2017-11-12T05:18:32.532Z,0
2017-11-12T05:19:41.149Z,0
2017-11-12T05:20:50.113Z,0
2017-11-12T05:21:58.731Z,0
2017-11-12T05:23:07.344Z,0
2017-11-12T05:24:15.970Z,0
2017-11-12T05:25:24.587Z,0
2017-11-12T05:26:33.205Z,0
2017-11-12T05:27:41.829Z,0
2017-11-12T05:28:50.446Z,0
2017-11-12T05:29:59.068Z,0
2017-11-12T05:31:07.689Z,0
2017-11-12T05:32:16.309Z,0
2017-11-12T05:33:24.920Z,0
2017-11-12T05:34:33.871Z,0
2017-11-12T05:35:42.494Z,0
2017-11-12T05:36:51.440Z,0
2017-11-12T05:38:00.066Z,0
2017-11-12T05:39:08.685Z,0
2017-11-12T05:40:17.643Z,0
2017-11-12T05:41:26.598Z,0
2017-11-12T05:42:35.210Z,0
2017-11-12T05:43:43.835Z,0
2017-11-12T05:44:52.450Z,0
2017-11-12T05:46:01.078Z,0
2017-11-12T05:47:09.696Z,0
2017-11-12T05:48:18.316Z,0
2017-11-12T05:49:26.938Z,0
2017-11-12T05:50:35.557Z,0
2017-11-12T05:51:44.170Z,0
2017-11-12T05:52:53.123Z,0
2017-11-12T05:54:01.741Z,0
2017-11-12T05:55:10.364Z,0
2017-11-12T05:56:18.982Z,0
2017-11-12T05:57:27.600Z,0
2017-11-12T05:58:36.224Z,0
2017-11-12T05:59:44.853Z,0
2017-11-12T06:00:53.464Z,0
2017-11-12T06:02:02.081Z,0
2017-11-12T06:03:10.704Z,0
2017-11-12T06:04:19.316Z,0
2017-11-12T06:05:27.939Z,0
2017-11-12T06:06:36.568Z,0
2017-11-12T06:07:45.190Z,0
2017-11-12T06:08:53.813Z,0
2017-11-12T06:10:02.429Z,0
2017-11-12T06:11:11.047Z,0
2017-11-12T06:12:19.671Z,0
2017-11-12T06:13:28.285Z,0
2017-11-12T06:14:36.912Z,0
2017-11-12T06:15:45.529Z,0
2017-11-12T06:16:54.152Z,0
2017-11-12T06:18:02.773Z,0
2017-11-12T06:19:11.386Z,4
2017-11-12T06:20:20.010Z,4
2017-11-12T06:21:28.629Z,0
2017-11-12T06:22:37.253Z,4
2017-11-12T06:23:45.874Z,4
2017-11-12T06:24:54.824Z,4
2017-11-12T06:26:03.448Z,8
2017-11-12T06:27:12.067Z,4
2017-11-12T06:28:20.681Z,4
2017-11-12T06:29:29.303Z,8
2017-11-12T06:30:37.927Z,8
2017-11-12T06:31:46.534Z,12
2017-11-12T06:32:55.159Z,12
2017-11-12T06:34:04.113Z,16
2017-11-12T06:35:12.733Z,20
2017-11-12T06:36:21.361Z,20
2017-11-12T06:37:29.974Z,24
2017-11-12T06:38:38.926Z,24
2017-11-12T06:39:47.551Z,32
2017-11-12T06:40:56.162Z,32
2017-11-12T06:42:04.788Z,32
2017-11-12T06:43:13.742Z,32
2017-11-12T06:44:22.362Z,36
2017-11-12T06:45:30.986Z,36
2017-11-12T06:46:39.598Z,40
2017-11-12T06:47:48.229Z,36
2017-11-12T06:48:56.845Z,40
2017-11-12T06:50:05.463Z,44
2017-11-12T06:51:14.083Z,44
2017-11-12T06:52:22.702Z,44
2017-11-12T06:53:31.326Z,48
2017-11-12T06:54:39.951Z,44
2017-11-12T06:55:48.560Z,48
2017-11-12T06:56:57.180Z,52
2017-11-12T06:58:05.804Z,52
2017-11-12T06:59:14.785Z,56
2017-11-12T07:00:23.406Z,60
2017-11-12T07:01:32.034Z,64
2017-11-12T07:02:40.651Z,64
2017-11-12T07:03:49.268Z,68
2017-11-12T07:04:57.896Z,72
2017-11-12T07:06:06.520Z,84
2017-11-12T07:07:15.141Z,92
2017-11-12T07:08:23.757Z,92
2017-11-12T07:09:32.379Z,92
2017-11-12T07:10:41.004Z,96
2017-11-12T07:11:49.622Z,96
2017-11-12T07:12:58.238Z,108
2017-11-12T07:14:06.866Z,124
2017-11-12T07:15:15.486Z,144
2017-11-12T07:16:24.105Z,160
2017-11-12T07:17:32.733Z,172
2017-11-12T07:18:41.353Z,184
2017-11-12T07:19:49.970Z,192
2017-11-12T07:20:58.591Z,204
2017-11-12T07:22:07.208Z,220
2017-11-12T07:23:15.842Z,220
2017-11-12T07:24:24.452Z,216
2017-11-12T07:25:33.072Z,236
2017-11-12T07:26:41.703Z,260
2017-11-12T07:27:50.319Z,272
2017-11-12T07:28:58.938Z,284
2017-11-12T07:30:07.561Z,300
2017-11-12T07:31:16.188Z,320
2017-11-12T07:32:24.801Z,328
2017-11-12T07:33:33.422Z,336
2017-11-12T07:34:42.041Z,344
2017-11-12T07:35:50.666Z,324
2017-11-12T07:36:59.287Z,348
2017-11-12T07:38:07.906Z,352
2017-11-12T07:39:16.530Z,348
2017-11-12T07:40:25.150Z,328
2017-11-12T07:41:33.764Z,336
2017-11-12T07:42:42.411Z,352
2017-11-12T07:43:51.010Z,408
2017-11-12T07:44:59.639Z,432
2017-11-12T07:46:08.262Z,432
2017-11-12T07:47:16.884Z,352
2017-11-12T07:48:25.507Z,308
2017-11-12T07:49:34.118Z,284
2017-11-12T07:50:42.745Z,280
2017-11-12T07:51:51.360Z,316
2017-11-12T07:52:59.979Z,408
2017-11-12T07:54:08.611Z,472
2017-11-12T07:55:17.231Z,548
2017-11-12T07:56:25.850Z,560
2017-11-12T07:57:34.473Z,596
2017-11-12T07:58:43.094Z,620
2017-11-12T07:59:51.707Z,572
2017-11-12T08:01:00.332Z,568
2017-11-12T08:02:09.288Z,536
2017-11-12T08:03:17.902Z,564
2017-11-12T08:04:26.532Z,552
2017-11-12T08:05:35.155Z,528
2017-11-12T08:06:43.781Z,488
2017-11-12T08:07:52.736Z,464
2017-11-12T08:09:01.349Z,488
2017-11-12T08:10:09.971Z,484
2017-11-12T08:11:18.600Z,472
2017-11-12T08:12:27.211Z,480
2017-11-12T08:13:35.838Z,492
2017-11-12T08:14:44.462Z,496
2017-11-12T08:15:53.081Z,492
2017-11-12T08:17:01.700Z,476
2017-11-12T08:18:10.327Z,464
2017-11-12T08:19:18.945Z,460
2017-11-12T08:20:27.567Z,504
2017-11-12T08:21:36.180Z,548
2017-11-12T08:22:44.808Z,608
2017-11-12T08:23:53.762Z,652
2017-11-12T08:25:02.381Z,700
2017-11-12T08:26:11.000Z,748
2017-11-12T08:27:19.964Z,780
2017-11-12T08:28:28.582Z,792
2017-11-12T08:29:37.202Z,760
2017-11-12T08:30:45.829Z,744
2017-11-12T08:31:54.447Z,772
2017-11-12T08:33:03.064Z,832
2017-11-12T08:34:11.684Z,920
2017-11-12T08:35:20.311Z,972
2017-11-12T08:36:28.929Z,996
2017-11-12T08:37:37.553Z,956
2017-11-12T08:38:46.176Z,876
2017-11-12T08:39:54.805Z,800
2017-11-12T08:41:03.416Z,800
2017-11-12T08:42:12.040Z,820
2017-11-12T08:43:20.994Z,848
2017-11-12T08:44:29.613Z,872
2017-11-12T08:45:38.242Z,908
2017-11-12T08:46:46.858Z,976
2017-11-12T08:47:55.483Z,920
2017-11-12T08:49:04.096Z,844
2017-11-12T08:50:12.718Z,788
2017-11-12T08:51:21.341Z,672
2017-11-12T08:52:29.959Z,640
2017-11-12T08:53:38.579Z,616
2017-11-12T08:54:47.205Z,664
2017-11-12T08:55:55.837Z,620
2017-11-12T08:57:04.784Z,800
2017-11-12T08:58:13.420Z,764
2017-11-12T08:59:22.029Z,808
2017-11-12T09:00:30.991Z,848
2017-11-12T09:01:39.614Z,848
2017-11-12T09:02:48.230Z,840
2017-11-12T09:03:56.857Z,884
2017-11-12T09:05:05.480Z,924
2017-11-12T09:06:14.443Z,920
2017-11-12T09:07:23.400Z,948
2017-11-12T09:08:32.019Z,900
2017-11-12T09:09:40.637Z,920
2017-11-12T09:10:49.263Z,920
2017-11-12T09:11:57.886Z,892
2017-11-12T09:13:07.161Z,884
2017-11-12T09:14:15.788Z,880
2017-11-12T09:15:24.749Z,888
2017-11-12T09:16:33.701Z,896
2017-11-12T09:17:42.329Z,880
2017-11-12T09:18:50.950Z,856
2017-11-12T09:19:59.573Z,848
2017-11-12T09:21:08.199Z,860
2017-11-12T09:22:16.811Z,888
2017-11-12T09:23:25.437Z,908
2017-11-12T09:24:34.060Z,940
2017-11-12T09:25:42.673Z,928
2017-11-12T09:26:51.301Z,896
2017-11-12T09:27:59.917Z,916
2017-11-12T09:29:08.562Z,952
2017-11-12T09:30:17.157Z,988
2017-11-12T09:31:26.122Z,1044
2017-11-12T09:32:34.743Z,1084
2017-11-12T09:33:43.368Z,1124
2017-11-12T09:34:51.981Z,1156
2017-11-12T09:36:00.607Z,1132
2017-11-12T09:37:09.230Z,1104
2017-11-12T09:38:17.846Z,1144
2017-11-12T09:39:26.477Z,1172
2017-11-12T09:40:35.103Z,1068
2017-11-12T09:41:43.715Z,1172
2017-11-12T09:42:52.339Z,1284
2017-11-12T09:44:00.959Z,1304
2017-11-12T09:45:09.581Z,1300
2017-11-12T09:46:18.207Z,1300
2017-11-12T09:47:26.828Z,1304
2017-11-12T09:48:35.453Z,1304
2017-11-12T09:49:44.067Z,1328
2017-11-12T09:50:52.690Z,1368
2017-11-12T09:52:01.317Z,1436
2017-11-12T09:53:09.931Z,1472
2017-11-12T09:54:18.555Z,1432
2017-11-12T09:55:27.180Z,1336
2017-11-12T09:56:35.797Z,1288
2017-11-12T09:57:44.759Z,1308
2017-11-12T09:58:53.386Z,1368
2017-11-12T10:00:02.004Z,1400
2017-11-12T10:01:10.633Z,1432
2017-11-12T10:02:19.582Z,1420
2017-11-12T10:03:28.208Z,1520
2017-11-12T10:04:36.829Z,1640
2017-11-12T10:05:45.451Z,1708
2017-11-12T10:06:54.068Z,1660
2017-11-12T10:08:02.718Z,1708
2017-11-12T10:09:11.651Z,1880
2017-11-12T10:10:20.275Z,2040
2017-11-12T10:11:28.892Z,2120
2017-11-12T10:12:37.858Z,2148
2017-11-12T10:13:46.483Z,2204
2017-11-12T10:14:55.104Z,2252
2017-11-12T10:16:03.734Z,2256
2017-11-12T10:17:12.347Z,2216
2017-11-12T10:18:20.971Z,2108
2017-11-12T10:19:29.599Z,1972
2017-11-12T10:20:38.215Z,1904
2017-11-12T10:21:46.844Z,1896
2017-11-12T10:22:55.797Z,1888
2017-11-12T10:24:04.420Z,1852
2017-11-12T10:25:13.046Z,1808
2017-11-12T10:26:21.677Z,1752
2017-11-12T10:27:30.295Z,1692
2017-11-12T10:28:38.918Z,1656
2017-11-12T10:29:47.880Z,1608
2017-11-12T10:30:56.495Z,1556
2017-11-12T10:32:05.119Z,1504
2017-11-12T10:33:13.738Z,1456
2017-11-12T10:34:22.358Z,1420
2017-11-12T10:35:30.989Z,1400
2017-11-12T10:36:39.609Z,1416
2017-11-12T10:37:48.233Z,1412
2017-11-12T10:38:57.176Z,1380
2017-11-12T10:40:05.800Z,1340
2017-11-12T10:41:14.423Z,1316
2017-11-12T10:42:23.048Z,1300
2017-11-12T10:43:32.002Z,1352
2017-11-12T10:44:40.631Z,1532
2017-11-12T10:45:49.250Z,1712
2017-11-12T10:46:57.872Z,1784
2017-11-12T10:48:06.486Z,1668
2017-11-12T10:49:15.114Z,1628
2017-11-12T10:50:23.737Z,1608
2017-11-12T10:51:32.358Z,1644
2017-11-12T10:52:40.978Z,1832
2017-11-12T10:53:49.938Z,1980
2017-11-12T10:54:58.559Z,2036
2017-11-12T10:56:07.178Z,2144
2017-11-12T10:57:15.811Z,2244
2017-11-12T10:58:24.431Z,2272
2017-11-12T10:59:33.048Z,2324
2017-11-12T11:00:41.668Z,2368
2017-11-12T11:01:50.292Z,2376
2017-11-12T11:02:58.923Z,2332
2017-11-12T11:04:07.546Z,2260
2017-11-12T11:05:16.162Z,2236
2017-11-12T11:06:25.120Z,2172
2017-11-12T11:07:33.743Z,2084
2017-11-12T11:08:42.370Z,2100
2017-11-12T11:09:50.998Z,2204
2017-11-12T11:10:59.621Z,2284
2017-11-12T11:12:08.241Z,2316
2017-11-12T11:13:17.197Z,2268
2017-11-12T11:14:25.818Z,2176
2017-11-12T11:15:34.445Z,2060
2017-11-12T11:16:43.065Z,1956
2017-11-12T11:17:51.695Z,1908
2017-11-12T11:19:00.311Z,1928
2017-11-12T11:20:09.304Z,1952
2017-11-12T11:21:17.919Z,1932
2017-11-12T11:22:26.544Z,1888
2017-11-12T11:23:35.502Z,1796
2017-11-12T11:24:44.122Z,1720
2017-11-12T11:25:52.750Z,1712
2017-11-12T11:27:01.373Z,1692
2017-11-12T11:28:10.325Z,1620
2017-11-12T11:29:18.958Z,1548
2017-11-12T11:30:27.907Z,1520
2017-11-12T11:31:36.532Z,1512
2017-11-12T11:32:45.159Z,1512
2017-11-12T11:33:53.776Z,1520
2017-11-12T11:35:02.402Z,1504
2017-11-12T11:36:11.027Z,1484
2017-11-12T11:37:19.651Z,1484
2017-11-12T11:38:28.273Z,1492
2017-11-12T11:39:36.891Z,1500
2017-11-12T11:40:45.514Z,1516
2017-11-12T11:41:54.472Z,1532
2017-11-12T11:43:03.087Z,1560
2017-11-12T11:44:12.050Z,1588
2017-11-12T11:45:20.670Z,1636
2017-11-12T11:46:29.295Z,1684
2017-11-12T11:47:37.919Z,1732
2017-11-12T11:48:46.536Z,1768
2017-11-12T11:49:55.160Z,1796
2017-11-12T11:51:03.785Z,1784
2017-11-12T11:52:12.405Z,1768
2017-11-12T11:53:21.027Z,1764
2017-11-12T11:54:29.653Z,1752
2017-11-12T11:55:38.272Z,1724
2017-11-12T11:56:46.891Z,1728
2017-11-12T11:57:55.522Z,1756
2017-11-12T11:59:04.143Z,1780
2017-11-12T12:00:12.773Z,1808
2017-11-12T12:01:21.721Z,1716
2017-11-12T12:02:30.349Z,1612
2017-11-12T12:03:38.979Z,1528
2017-11-12T12:04:47.596Z,1352
2017-11-12T12:05:56.216Z,1024
2017-11-12T12:07:05.170Z,860
2017-11-12T12:08:13.790Z,816
2017-11-12T12:09:22.414Z,892
2017-11-12T12:10:31.042Z,1044
2017-11-12T12:11:39.665Z,1128
2017-11-12T12:12:48.285Z,1112
2017-11-12T12:13:56.908Z,1132
2017-11-12T12:15:05.531Z,1212
2017-11-12T12:16:14.162Z,1220
2017-11-12T12:17:22.783Z,1212
2017-11-12T12:18:31.407Z,1236
2017-11-12T12:19:40.040Z,1248
2017-11-12T12:20:48.658Z,1288
2017-11-12T12:21:57.279Z,1396
2017-11-12T12:23:05.909Z,1512
2017-11-12T12:24:14.528Z,1548
2017-11-12T12:25:23.146Z,1556
2017-11-12T12:26:31.770Z,1524
2017-11-12T12:27:40.725Z,1492
2017-11-12T12:28:49.357Z,1520
2017-11-12T12:29:57.978Z,1588
2017-11-12T12:31:06.603Z,1644
2017-11-12T12:32:15.238Z,1616
2017-11-12T12:33:23.855Z,1592
2017-11-12T12:34:32.471Z,1660
2017-11-12T12:35:41.099Z,1660
2017-11-12T12:36:49.726Z,1676
2017-11-12T12:37:58.349Z,1804
2017-11-12T12:39:06.969Z,1896
2017-11-12T12:40:15.589Z,1900
2017-11-12T12:41:24.214Z,1812
2017-11-12T12:42:32.833Z,1676
2017-11-12T12:43:41.461Z,1800
2017-11-12T12:44:50.081Z,1792
2017-11-12T12:45:58.702Z,1836
2017-11-12T12:47:07.333Z,1892
2017-11-12T12:48:15.957Z,1952
2017-11-12T12:49:24.579Z,1968
2017-11-12T12:50:33.202Z,1888
2017-11-12T12:51:41.827Z,1844
2017-11-12T12:52:50.451Z,1872
2017-11-12T12:53:59.076Z,2020
2017-11-12T12:55:07.699Z,2160
2017-11-12T12:56:16.313Z,2264
2017-11-12T12:57:24.944Z,2412
2017-11-12T12:58:33.565Z,2604
2017-11-12T12:59:42.190Z,2564
2017-11-12T13:00:50.814Z,2324
2017-11-12T13:01:59.432Z,1844
2017-11-12T13:03:08.052Z,1676
2017-11-12T13:04:16.678Z,1788
2017-11-12T13:05:25.293Z,1944
2017-11-12T13:06:33.920Z,2116
2017-11-12T13:07:42.878Z,2340
2017-11-12T13:08:51.500Z,2452
2017-11-12T13:10:00.119Z,2600
2017-11-12T13:11:08.750Z,2796
2017-11-12T13:12:17.367Z,2984
2017-11-12T13:13:25.995Z,3196
2017-11-12T13:14:34.615Z,3348
2017-11-12T13:15:43.243Z,3380
2017-11-12T13:16:51.869Z,3260
2017-11-12T13:18:00.493Z,3284
2017-11-12T13:19:09.118Z,3224
2017-11-12T13:20:17.744Z,2996
2017-11-12T13:21:26.364Z,2892
2017-11-12T13:22:35.653Z,2860
2017-11-12T13:23:44.284Z,2660
2017-11-12T13:24:52.905Z,2696
2017-11-12T13:26:01.545Z,2652
2017-11-12T13:27:10.148Z,2440
2017-11-12T13:28:18.770Z,2416
2017-11-12T13:29:27.402Z,2292
2017-11-12T13:30:36.364Z,2024
2017-11-12T13:31:45.316Z,2096
2017-11-12T13:32:53.947Z,1964
2017-11-12T13:34:02.565Z,1668
2017-11-12T13:35:11.192Z,1552
2017-11-12T13:36:19.845Z,1456
2017-11-12T13:37:28.437Z,1424
2017-11-12T13:38:37.068Z,1388
2017-11-12T13:39:46.015Z,1356
2017-11-12T13:40:54.642Z,1492
2017-11-12T13:42:03.263Z,1588
2017-11-12T13:43:11.887Z,1552
2017-11-12T13:44:20.514Z,1408
2017-11-12T13:45:29.138Z,1332
2017-11-12T13:46:37.759Z,1376
2017-11-12T13:47:46.388Z,1584
2017-11-12T13:48:55.013Z,1524
2017-11-12T13:50:03.635Z,1304
2017-11-12T13:51:12.264Z,1140
2017-11-12T13:52:20.887Z,984
2017-11-12T13:53:29.509Z,888
2017-11-12T13:54:38.140Z,784
2017-11-12T13:55:47.091Z,744
2017-11-12T13:56:55.714Z,892
2017-11-12T13:58:04.335Z,924
2017-11-12T13:59:12.960Z,984
2017-11-12T14:00:21.591Z,1148
2017-11-12T14:01:30.545Z,1248
2017-11-12T14:02:39.166Z,1240
2017-11-12T14:03:47.789Z,1204
2017-11-12T14:04:56.747Z,1204
2017-11-12T14:06:05.380Z,1096
2017-11-12T14:07:13.994Z,1016
2017-11-12T14:08:22.614Z,1408
2017-11-12T14:09:31.244Z,1440
2017-11-12T14:10:39.860Z,1492
2017-11-12T14:11:48.486Z,1448
2017-11-12T14:12:57.113Z,1564
2017-11-12T14:14:05.736Z,1396
2017-11-12T14:15:14.367Z,1240
2017-11-12T14:16:22.984Z,1184
2017-11-12T14:17:31.944Z,1256
2017-11-12T14:18:40.908Z,1312
2017-11-12T14:19:49.528Z,1164
2017-11-12T14:20:58.153Z,1068
2017-11-12T14:22:06.779Z,876
2017-11-12T14:23:15.404Z,624
2017-11-12T14:24:24.021Z,464
2017-11-12T14:25:32.651Z,576
2017-11-12T14:26:41.272Z,752
2017-11-12T14:27:49.905Z,764
2017-11-12T14:28:58.524Z,700
2017-11-12T14:30:07.151Z,676
2017-11-12T14:31:15.776Z,652
2017-11-12T14:32:24.393Z,552
2017-11-12T14:33:33.023Z,516
2017-11-12T14:34:41.652Z,532
2017-11-12T14:35:50.267Z,512
2017-11-12T14:36:58.900Z,456
2017-11-12T14:38:07.519Z,400
2017-11-12T14:39:16.139Z,368
2017-11-12T14:40:24.757Z,364
2017-11-12T14:41:33.381Z,388
2017-11-12T14:42:42.015Z,440
2017-11-12T14:43:50.646Z,432
2017-11-12T14:44:59.256Z,420
2017-11-12T14:46:07.884Z,420
2017-11-12T14:47:16.508Z,404
2017-11-12T14:48:25.130Z,384
2017-11-12T14:49:33.755Z,364
2017-11-12T14:50:42.380Z,364
2017-11-12T14:51:50.999Z,376
2017-11-12T14:52:59.629Z,396
2017-11-12T14:54:08.244Z,400
2017-11-12T14:55:16.876Z,384
2017-11-12T14:56:25.495Z,360
2017-11-12T14:57:34.117Z,332
2017-11-12T14:58:42.740Z,300
2017-11-12T14:59:52.033Z,272
2017-11-12T15:01:00.650Z,248
2017-11-12T15:02:09.277Z,232
2017-11-12T15:03:17.905Z,224
2017-11-12T15:04:26.521Z,220
2017-11-12T15:05:35.143Z,224
2017-11-12T15:06:43.771Z,228
2017-11-12T15:07:52.398Z,228
2017-11-12T15:09:01.029Z,220
2017-11-12T15:10:09.644Z,216
2017-11-12T15:11:18.269Z,212
2017-11-12T15:12:26.895Z,212
2017-11-12T15:13:35.512Z,224
2017-11-12T15:14:44.138Z,232
2017-11-12T15:15:52.762Z,240
2017-11-12T15:17:01.383Z,240
2017-11-12T15:18:10.004Z,244
2017-11-12T15:19:18.636Z,236
2017-11-12T15:20:27.261Z,212
2017-11-12T15:21:36.215Z,180
2017-11-12T15:22:45.196Z,152
2017-11-12T15:23:53.813Z,124
2017-11-12T15:25:02.440Z,108
2017-11-12T15:26:11.392Z,96
2017-11-12T15:27:20.035Z,96
2017-11-12T15:28:28.642Z,96
2017-11-12T15:29:37.261Z,104
2017-11-12T15:30:45.886Z,112
2017-11-12T15:31:54.503Z,124
2017-11-12T15:33:03.128Z,128
2017-11-12T15:34:11.757Z,120
2017-11-12T15:35:20.376Z,104
2017-11-12T15:36:28.998Z,88
2017-11-12T15:37:37.628Z,76
2017-11-12T15:38:46.252Z,64
2017-11-12T15:39:54.876Z,56
2017-11-12T15:41:03.489Z,52
2017-11-12T15:42:12.114Z,48
2017-11-12T15:43:20.739Z,52
2017-11-12T15:44:29.366Z,56
2017-11-12T15:45:38.313Z,56
2017-11-12T15:46:46.941Z,48
2017-11-12T15:47:55.565Z,40
2017-11-12T15:49:04.182Z,32
2017-11-12T15:50:12.823Z,28
2017-11-12T15:51:22.113Z,28
2017-11-12T15:52:30.735Z,28
2017-11-12T15:53:39.354Z,20
2017-11-12T15:54:47.978Z,20
2017-11-12T15:55:56.610Z,16
2017-11-12T15:57:05.259Z,16
2017-11-12T15:58:13.850Z,12
2017-11-12T15:59:22.477Z,8
2017-11-12T16:00:31.099Z,8
2017-11-12T16:01:39.723Z,8
2017-11-12T16:02:48.351Z,4
2017-11-12T16:03:56.979Z,4
2017-11-12T16:05:05.590Z,0